createdAt,value
2018-12-19T00:00:47.526Z,5.00
2018-12-19T00:03:14.924Z,6.77
2018-12-19T00:05:42.330Z,6.03
2018-12-19T00:08:09.722Z,6.30
2018-12-19T00:10:37.110Z,5.90
2018-12-19T00:13:04.504Z,5.97
2018-12-19T00:15:32.063Z,5.77
2018-12-19T00:17:59.437Z,6.17
2018-12-19T00:20:26.875Z,6.07
2018-12-19T00:22:54.838Z,6.03
2018-12-19T00:25:22.286Z,4.80
2018-12-19T00:27:49.684Z,7.07
2018-12-19T00:30:17.079Z,3.90
2018-12-19T00:32:44.462Z,7.73
2018-12-19T00:35:11.923Z,6.03
2018-12-19T00:37:39.302Z,5.87
2018-12-19T00:40:06.734Z,6.30
2018-12-19T00:42:34.189Z,5.77
2018-12-19T00:45:01.587Z,6.20
2018-12-19T00:47:28.970Z,6.37
2018-12-19T00:49:56.374Z,5.60
2018-12-19T00:52:23.857Z,5.33
2018-12-19T00:54:51.271Z,5.47
2018-12-19T00:57:18.666Z,6.20
2018-12-19T00:59:46.058Z,6.37
2018-12-19T01:02:13.543Z,6.30
2018-12-19T01:04:40.990Z,5.17
2018-12-19T01:07:08.447Z,5.40
2018-12-19T01:09:36.020Z,5.63
2018-12-19T01:12:03.394Z,5.80
2018-12-19T01:14:30.786Z,5.57
2018-12-19T01:16:58.274Z,6.20
2018-12-19T01:19:25.730Z,6.03
2018-12-19T01:21:53.123Z,5.30
2018-12-19T01:24:20.994Z,4.93
2018-12-19T01:26:48.418Z,4.73
2018-12-19T01:29:15.879Z,6.10
2018-12-19T01:31:43.259Z,6.30
2018-12-19T01:34:10.679Z,5.67
2018-12-19T01:36:38.071Z,4.37
2018-12-19T01:39:06.363Z,5.53
2018-12-19T01:41:33.865Z,3.80
2018-12-19T01:44:01.322Z,5.40
2018-12-19T01:46:28.714Z,5.47
2018-12-19T01:48:56.142Z,5.37
2018-12-19T01:51:23.546Z,4.73
2018-12-19T01:53:50.946Z,4.77
2018-12-19T01:56:18.405Z,4.77
2018-12-19T01:58:45.778Z,4.83
2018-12-19T02:01:13.216Z,4.53
2018-12-19T02:03:40.673Z,3.47
2018-12-19T02:06:08.062Z,3.83
2018-12-19T02:08:35.438Z,4.50
2018-12-19T02:11:02.837Z,5.63
2018-12-19T02:13:30.299Z,4.90
2018-12-19T02:15:57.750Z,5.90
2018-12-19T02:18:25.206Z,5.47
2018-12-19T02:20:52.661Z,5.30
2018-12-19T02:23:20.129Z,4.20
2018-12-19T02:25:47.502Z,4.73
2018-12-19T02:28:15.037Z,4.80
2018-12-19T02:30:42.490Z,5.13
2018-12-19T02:33:10.063Z,6.03
2018-12-19T02:35:37.418Z,4.60
2018-12-19T02:38:04.872Z,5.50
2018-12-19T02:40:32.254Z,4.70
2018-12-19T02:42:59.681Z,5.27
2018-12-19T02:45:27.133Z,5.77
2018-12-19T02:47:54.587Z,4.60
2018-12-19T02:50:22.050Z,5.10
2018-12-19T02:52:49.503Z,5.63
2018-12-19T02:55:16.958Z,4.33
2018-12-19T02:57:44.422Z,3.80
2018-12-19T03:00:11.866Z,4.63
2018-12-19T03:02:39.267Z,5.27
2018-12-19T03:05:06.786Z,5.63
2018-12-19T03:07:34.175Z,5.33
2018-12-19T03:10:01.740Z,4.53
2018-12-19T03:12:29.258Z,4.87
2018-12-19T03:14:56.716Z,5.23
2018-12-19T03:17:24.170Z,4.37
2018-12-19T03:19:51.627Z,5.17
2018-12-19T03:22:19.095Z,5.37
2018-12-19T03:24:46.542Z,5.13
2018-12-19T03:27:13.932Z,4.37
2018-12-19T03:29:41.318Z,5.43
2018-12-19T03:32:08.717Z,5.50
2018-12-19T03:34:36.098Z,5.53
2018-12-19T03:37:03.494Z,6.57
2018-12-19T03:39:31.005Z,4.37
2018-12-19T03:41:58.529Z,3.73
2018-12-19T03:44:25.943Z,4.07
2018-12-19T03:46:53.418Z,4.57
2018-12-19T03:49:21.202Z,4.60
2018-12-19T03:51:48.683Z,5.00
2018-12-19T03:54:16.481Z,4.47
2018-12-19T03:56:44.078Z,4.60
2018-12-19T03:59:11.538Z,4.37
2018-12-19T04:01:39.122Z,4.30
2018-12-19T04:04:06.493Z,3.90
2018-12-19T04:06:34.026Z,4.40
2018-12-19T04:09:01.422Z,4.00
2018-12-19T04:11:28.802Z,4.73
2018-12-19T04:13:56.299Z,4.40
2018-12-19T04:16:23.754Z,5.07
2018-12-19T04:18:51.158Z,3.80
2018-12-19T04:21:18.566Z,4.53
2018-12-19T04:23:46.018Z,6.07
2018-12-19T04:26:13.474Z,5.23
2018-12-19T04:28:40.939Z,5.17
2018-12-19T04:31:08.721Z,5.20
2018-12-19T04:33:36.155Z,6.43
2018-12-19T04:36:04.147Z,5.73
2018-12-19T04:38:31.830Z,4.70
2018-12-19T04:40:59.456Z,4.40
2018-12-19T04:43:27.018Z,5.83
2018-12-19T04:45:54.398Z,5.47
2018-12-19T04:48:21.814Z,5.50
2018-12-19T04:50:49.194Z,5.10
2018-12-19T04:53:16.639Z,5.03
2018-12-19T04:55:44.049Z,4.90
2018-12-19T04:58:11.467Z,5.20
2018-12-19T05:00:38.901Z,5.13
2018-12-19T05:03:06.369Z,5.43
2018-12-19T05:05:33.822Z,4.40
2018-12-19T05:08:01.215Z,6.43
2018-12-19T05:10:28.631Z,5.60
2018-12-19T05:12:56.082Z,5.20
2018-12-19T05:15:23.643Z,6.10
2018-12-19T05:17:51.102Z,6.13
2018-12-19T05:20:18.563Z,6.53
2018-12-19T05:22:46.118Z,5.43
2018-12-19T05:25:14.593Z,6.40
2018-12-19T05:27:42.063Z,5.53
2018-12-19T05:30:09.922Z,4.93
2018-12-19T05:32:37.298Z,5.40
2018-12-19T05:35:06.199Z,5.77
2018-12-19T05:37:33.658Z,6.00
2018-12-19T05:40:01.074Z,6.33
2018-12-19T05:42:28.535Z,6.27
2018-12-19T05:44:55.923Z,6.40
2018-12-19T05:47:23.556Z,5.70
2018-12-19T05:49:51.219Z,6.40
2018-12-19T05:52:20.314Z,4.93
2018-12-19T05:54:47.911Z,5.97
2018-12-19T05:57:15.491Z,5.00
2018-12-19T05:59:43.722Z,6.20
2018-12-19T06:02:11.166Z,6.10
2018-12-19T06:04:38.618Z,5.83
2018-12-19T06:07:05.998Z,5.90
2018-12-19T06:09:33.386Z,6.03
2018-12-19T06:12:00.762Z,6.27
2018-12-19T06:14:28.221Z,5.73
2018-12-19T06:16:55.611Z,6.53
2018-12-19T06:19:23.042Z,6.27
2018-12-19T06:21:50.542Z,6.10
2018-12-19T06:24:17.972Z,5.87
2018-12-19T06:26:45.418Z,5.87
2018-12-19T06:29:12.796Z,6.80
2018-12-19T06:31:40.231Z,5.80
2018-12-19T06:34:07.698Z,6.27
2018-12-19T06:36:35.095Z,5.30
2018-12-19T06:39:02.483Z,6.07
2018-12-19T06:41:29.950Z,6.27
2018-12-19T06:43:57.414Z,7.13
2018-12-19T06:46:24.879Z,6.30
2018-12-19T06:48:52.379Z,5.83
2018-12-19T06:51:19.878Z,6.90
2018-12-19T06:53:47.334Z,6.63
2018-12-19T06:56:14.907Z,6.50
2018-12-19T06:58:42.350Z,6.10
2018-12-19T07:01:09.745Z,6.10
2018-12-19T07:03:37.162Z,6.47
2018-12-19T07:06:04.626Z,6.53
2018-12-19T07:08:32.074Z,6.40
2018-12-19T07:10:59.539Z,6.00
2018-12-19T07:13:27.215Z,6.13
2018-12-19T07:15:54.597Z,6.17
2018-12-19T07:18:21.990Z,7.07
2018-12-19T07:20:49.386Z,6.77
2018-12-19T07:23:16.770Z,5.80
2018-12-19T07:25:44.154Z,6.67
2018-12-19T07:28:11.535Z,7.90
2018-12-19T07:30:38.986Z,6.30
2018-12-19T07:33:06.444Z,6.77
2018-12-19T07:35:33.827Z,7.27
2018-12-19T07:38:01.254Z,6.40
2018-12-19T07:40:28.654Z,6.47
2018-12-19T07:42:56.039Z,6.90
2018-12-19T07:45:23.527Z,6.90
2018-12-19T07:47:50.958Z,6.60
2018-12-19T07:50:18.455Z,7.70
2018-12-19T07:52:46.162Z,7.53
2018-12-19T07:55:13.538Z,6.77
2018-12-19T07:57:41.014Z,7.00
2018-12-19T08:00:08.410Z,5.97
2018-12-19T08:02:35.794Z,6.87
2018-12-19T08:05:03.178Z,5.63
2018-12-19T08:07:30.570Z,6.77
2018-12-19T08:09:57.990Z,6.83
2018-12-19T08:12:25.403Z,7.20
2018-12-19T08:14:54.757Z,7.50
2018-12-19T08:17:22.146Z,5.07
2018-12-19T08:19:49.558Z,7.70
2018-12-19T08:22:16.955Z,7.83
2018-12-19T08:24:44.418Z,8.33
2018-12-19T08:27:11.822Z,7.10
2018-12-19T08:29:39.199Z,8.37
2018-12-19T08:32:06.666Z,6.90
2018-12-19T08:34:34.058Z,8.50
2018-12-19T08:37:01.440Z,6.60
2018-12-19T08:39:29.134Z,8.50
2018-12-19T08:41:56.814Z,7.67
2018-12-19T08:44:24.506Z,7.27
2018-12-19T08:46:52.047Z,7.70
2018-12-19T08:49:19.450Z,8.13
2018-12-19T08:51:46.906Z,7.97
2018-12-19T08:54:14.362Z,7.50
2018-12-19T08:56:41.813Z,8.80
2018-12-19T08:59:09.275Z,8.30
2018-12-19T09:01:36.670Z,8.73
2018-12-19T09:04:04.065Z,8.20
2018-12-19T09:06:31.541Z,9.10
2018-12-19T09:08:59.014Z,7.80
2018-12-19T09:11:26.563Z,7.53
2018-12-19T09:13:53.964Z,8.77
2018-12-19T09:16:21.366Z,8.50
2018-12-19T09:18:48.826Z,8.30
2018-12-19T09:21:16.286Z,9.40
2018-12-19T09:23:43.674Z,7.43
2018-12-19T09:26:11.057Z,7.23
2018-12-19T09:28:38.514Z,8.30
2018-12-19T09:31:05.902Z,7.62
2018-12-19T09:33:33.362Z,8.23
2018-12-19T09:36:00.834Z,8.97
2018-12-19T09:38:28.229Z,8.47
2018-12-19T09:40:55.615Z,7.80
2018-12-19T09:43:23.026Z,8.30
2018-12-19T09:45:50.442Z,7.83
2018-12-19T09:48:18.230Z,7.90
2018-12-19T09:50:45.630Z,8.17
2018-12-19T09:53:13.422Z,7.57
2018-12-19T09:55:40.967Z,8.13
2018-12-19T09:58:08.354Z,8.53
2018-12-19T10:00:35.808Z,9.33
2018-12-19T10:03:03.254Z,9.13
2018-12-19T10:05:30.758Z,9.73
2018-12-19T10:07:58.170Z,8.50
2018-12-19T10:10:25.566Z,8.40
2018-12-19T10:12:52.974Z,10.00
2018-12-19T10:15:20.366Z,10.17
2018-12-19T10:17:47.791Z,8.83
2018-12-19T10:20:15.250Z,8.90
2018-12-19T10:22:42.706Z,7.40
2018-12-19T10:25:13.685Z,8.83
2018-12-19T10:27:41.175Z,8.27
2018-12-19T10:30:10.815Z,9.00
2018-12-19T10:32:39.484Z,7.90
2018-12-19T10:35:08.485Z,8.70
2018-12-19T10:37:36.055Z,9.00
2018-12-19T10:40:05.341Z,8.97
2018-12-19T10:42:32.738Z,9.00
2018-12-19T10:45:00.158Z,9.70
2018-12-19T10:47:27.555Z,8.47
2018-12-19T10:49:54.979Z,9.67
2018-12-19T10:52:22.435Z,8.30
2018-12-19T10:54:49.890Z,9.30
2018-12-19T10:57:17.341Z,9.47
2018-12-19T10:59:44.806Z,8.10
2018-12-19T11:02:12.202Z,8.67
2018-12-19T11:04:39.603Z,9.00
2018-12-19T11:07:06.990Z,8.50
2018-12-19T11:09:34.382Z,9.40
2018-12-19T11:12:01.894Z,8.67
2018-12-19T11:14:29.402Z,8.70
2018-12-19T11:16:57.021Z,9.03
2018-12-19T11:19:24.459Z,10.10
2018-12-19T11:21:51.856Z,8.40
2018-12-19T11:24:19.249Z,9.70
2018-12-19T11:26:46.750Z,8.57
2018-12-19T11:29:14.136Z,9.03
2018-12-19T11:31:41.553Z,7.60
2018-12-19T11:34:08.965Z,9.60
2018-12-19T11:36:36.574Z,10.60
2018-12-19T11:39:06.752Z,9.53
2018-12-19T11:41:38.955Z,10.30
2018-12-19T11:44:04.141Z,10.30
2018-12-19T11:46:31.606Z,10.90
2018-12-19T11:48:59.067Z,10.43
2018-12-19T11:51:26.464Z,11.70
2018-12-19T11:53:53.853Z,10.50
2018-12-19T11:56:21.321Z,11.73
2018-12-19T11:58:48.715Z,10.67
2018-12-19T12:01:16.143Z,11.50
2018-12-19T12:03:43.518Z,11.63
2018-12-19T12:06:10.910Z,12.03
2018-12-19T12:08:38.290Z,10.90
2018-12-19T12:11:05.762Z,11.20
2018-12-19T12:13:33.225Z,11.30
2018-12-19T12:16:00.651Z,11.77
2018-12-19T12:18:28.135Z,11.53
2018-12-19T12:20:55.582Z,11.30
2018-12-19T12:23:23.048Z,11.50
2018-12-19T12:25:50.443Z,11.37
2018-12-19T12:28:17.869Z,11.67
2018-12-19T12:30:45.314Z,11.97
2018-12-19T12:33:12.719Z,11.97
2018-12-19T12:35:40.315Z,11.67
2018-12-19T12:38:08.208Z,11.13
2018-12-19T12:40:35.586Z,11.53
2018-12-19T12:43:03.010Z,11.40
2018-12-19T12:45:30.403Z,12.17
2018-12-19T12:47:57.824Z,12.20
2018-12-19T12:50:25.273Z,11.50
2018-12-19T12:52:52.843Z,11.47
2018-12-19T12:55:20.242Z,12.03
2018-12-19T12:57:47.718Z,12.10
2018-12-19T13:00:15.102Z,10.70
2018-12-19T13:02:42.567Z,12.53
2018-12-19T13:05:10.124Z,11.47
2018-12-19T13:07:37.582Z,12.40
2018-12-19T13:10:07.465Z,11.40
2018-12-19T13:12:34.855Z,11.70
2018-12-19T13:15:02.516Z,11.70
2018-12-19T13:17:29.902Z,11.57
2018-12-19T13:19:57.310Z,11.60
2018-12-19T13:22:24.707Z,11.00
2018-12-19T13:24:52.126Z,11.10
2018-12-19T13:27:19.606Z,12.00
2018-12-19T13:29:47.042Z,12.17
2018-12-19T13:32:14.438Z,11.70
2018-12-19T13:34:41.837Z,11.47
2018-12-19T13:37:09.315Z,10.40
2018-12-19T13:39:36.719Z,11.70
2018-12-19T13:42:05.812Z,10.83
2018-12-19T13:44:33.528Z,12.10
2018-12-19T13:47:00.988Z,11.50
2018-12-19T13:49:28.387Z,11.73
2018-12-19T13:51:55.797Z,11.70
2018-12-19T13:54:23.260Z,12.50
2018-12-19T13:56:50.647Z,10.53
2018-12-19T13:59:18.070Z,12.17
2018-12-19T14:01:45.481Z,12.20
2018-12-19T14:04:12.887Z,11.73
2018-12-19T14:06:40.286Z,11.13
2018-12-19T14:09:07.684Z,12.10
2018-12-19T14:11:35.170Z,10.10
2018-12-19T14:14:02.597Z,11.63
2018-12-19T14:16:30.059Z,10.80
2018-12-19T14:18:57.519Z,10.33
2018-12-19T14:21:24.905Z,12.23
2018-12-19T14:23:52.345Z,11.83
2018-12-19T14:26:19.790Z,12.10
2018-12-19T14:28:47.249Z,11.63
2018-12-19T14:31:14.647Z,11.57
2018-12-19T14:33:42.031Z,12.20
2018-12-19T14:36:09.427Z,11.90
2018-12-19T14:38:36.823Z,11.13
2018-12-19T14:41:04.328Z,10.97
2018-12-19T14:43:31.710Z,10.40
2018-12-19T14:45:59.629Z,11.17
2018-12-19T14:48:27.115Z,11.70
2018-12-19T14:50:54.610Z,10.90
2018-12-19T14:53:21.999Z,12.90
2018-12-19T14:55:49.402Z,11.63
2018-12-19T14:58:16.836Z,12.40
2018-12-19T15:00:44.229Z,10.90
2018-12-19T15:03:11.613Z,10.30
2018-12-19T15:05:39.005Z,11.10
2018-12-19T15:08:06.450Z,11.03
2018-12-19T15:10:33.843Z,11.97
2018-12-19T15:13:01.267Z,12.63
2018-12-19T15:15:28.722Z,12.50
2018-12-19T15:17:56.188Z,12.20
2018-12-19T15:20:23.630Z,12.30
2018-12-19T15:22:51.017Z,11.63
2018-12-19T15:25:18.447Z,11.53
2018-12-19T15:27:45.914Z,11.33
2018-12-19T15:30:13.364Z,12.13
2018-12-19T15:32:40.834Z,12.13
2018-12-19T15:35:08.275Z,12.30
2018-12-19T15:37:35.735Z,11.47
2018-12-19T15:40:03.347Z,12.00
2018-12-19T15:42:32.682Z,13.00
2018-12-19T15:45:00.151Z,11.87
2018-12-19T15:47:27.550Z,12.60
2018-12-19T15:49:54.962Z,12.80
2018-12-19T15:52:22.528Z,12.13
2018-12-19T15:54:49.906Z,11.30
2018-12-19T15:57:17.294Z,11.63
2018-12-19T15:59:44.783Z,11.10
2018-12-19T16:02:12.247Z,11.73
2018-12-19T16:04:39.709Z,13.03
2018-12-19T16:07:07.106Z,12.83
2018-12-19T16:09:34.486Z,13.20
2018-12-19T16:12:01.981Z,12.70
2018-12-19T16:14:29.360Z,12.80
2018-12-19T16:16:56.795Z,12.00
2018-12-19T16:19:24.235Z,12.60
2018-12-19T16:21:51.622Z,11.93
2018-12-19T16:24:19.006Z,14.30
2018-12-19T16:26:46.414Z,13.73
2018-12-19T16:29:13.861Z,13.27
2018-12-19T16:31:41.258Z,13.70
2018-12-19T16:34:08.656Z,12.40
2018-12-19T16:36:36.050Z,12.63
2018-12-19T16:39:06.349Z,12.10
2018-12-19T16:41:33.824Z,11.40
2018-12-19T16:44:01.377Z,12.67
2018-12-19T16:46:28.825Z,13.13
2018-12-19T16:48:56.280Z,12.13
2018-12-19T16:51:23.742Z,13.43
2018-12-19T16:53:51.142Z,12.67
2018-12-19T16:56:18.649Z,12.73
2018-12-19T16:58:46.058Z,13.53
2018-12-19T17:01:13.769Z,13.83
2018-12-19T17:03:41.166Z,13.83
2018-12-19T17:06:08.552Z,14.50
2018-12-19T17:08:35.956Z,13.20
2018-12-19T17:11:03.397Z,13.60
2018-12-19T17:13:30.789Z,12.33
2018-12-19T17:15:58.206Z,13.10
2018-12-19T17:18:25.610Z,14.17
2018-12-19T17:20:53.007Z,14.80
2018-12-19T17:23:20.407Z,13.50
2018-12-19T17:25:47.936Z,14.50
2018-12-19T17:28:15.390Z,12.90
2018-12-19T17:30:42.783Z,14.57
2018-12-19T17:33:10.267Z,13.60
2018-12-19T17:35:37.658Z,13.20
2018-12-19T17:38:05.062Z,12.60
2018-12-19T17:40:32.450Z,13.60
2018-12-19T17:42:59.926Z,13.90
2018-12-19T17:45:27.382Z,14.47
2018-12-19T17:47:54.840Z,14.17
2018-12-19T17:50:22.298Z,14.70
2018-12-19T17:52:49.709Z,12.27
2018-12-19T17:55:17.169Z,12.03
2018-12-19T17:57:44.583Z,12.17
2018-12-19T18:00:12.155Z,13.60
2018-12-19T18:02:39.580Z,13.20
2018-12-19T18:05:07.142Z,13.40
2018-12-19T18:07:34.594Z,11.00
2018-12-19T18:10:02.088Z,12.83
2018-12-19T18:12:29.509Z,12.93
2018-12-19T18:14:56.886Z,13.07
2018-12-19T18:17:24.435Z,12.80
2018-12-19T18:19:51.883Z,12.23
2018-12-19T18:22:19.274Z,12.87
2018-12-19T18:24:46.672Z,11.60
2018-12-19T18:27:14.070Z,12.60
2018-12-19T18:29:41.522Z,12.83
2018-12-19T18:32:08.963Z,12.50
2018-12-19T18:34:36.356Z,11.93
2018-12-19T18:37:03.774Z,11.50
2018-12-19T18:39:31.235Z,12.13
2018-12-19T18:41:58.627Z,11.80
2018-12-19T18:44:26.048Z,12.47
2018-12-19T18:46:53.494Z,12.33
2018-12-19T18:49:20.959Z,12.33
2018-12-19T18:51:48.343Z,15.33
2018-12-19T18:54:15.742Z,12.67
2018-12-19T18:56:43.231Z,13.70
2018-12-19T18:59:10.637Z,12.60
2018-12-19T19:01:38.186Z,12.98
2018-12-19T19:04:05.702Z,12.27
2018-12-19T19:06:33.185Z,10.63
2018-12-19T19:09:00.724Z,12.13
2018-12-19T19:11:28.204Z,10.93
2018-12-19T19:13:55.635Z,13.30
2018-12-19T19:16:23.191Z,13.33
2018-12-19T19:18:50.637Z,12.23
2018-12-19T19:21:18.019Z,12.63
2018-12-19T19:23:45.425Z,12.90
2018-12-19T19:26:12.922Z,12.90
2018-12-19T19:28:40.306Z,12.27
2018-12-19T19:31:07.707Z,13.30
2018-12-19T19:33:35.189Z,11.60
2018-12-19T19:36:02.657Z,11.50
2018-12-19T19:38:30.054Z,13.30
2018-12-19T19:40:57.566Z,13.10
2018-12-19T19:43:26.680Z,13.50
2018-12-19T19:45:54.411Z,12.40
2018-12-19T19:48:21.818Z,13.80
2018-12-19T19:50:49.226Z,13.00
2018-12-19T19:53:16.627Z,12.60
2018-12-19T19:55:44.039Z,12.83
2018-12-19T19:58:11.493Z,14.93
2018-12-19T20:00:38.951Z,13.50
2018-12-19T20:03:06.410Z,12.70
2018-12-19T20:05:33.877Z,14.13
2018-12-19T20:08:01.322Z,13.40
2018-12-19T20:10:28.708Z,14.40
2018-12-19T20:12:56.130Z,13.40
2018-12-19T20:15:23.533Z,14.67
2018-12-19T20:17:50.915Z,14.37
2018-12-19T20:20:18.374Z,14.70
2018-12-19T20:22:45.782Z,14.30
2018-12-19T20:25:13.162Z,16.17
2018-12-19T20:27:40.568Z,16.80
2018-12-19T20:30:09.358Z,16.60
2018-12-19T20:32:36.816Z,16.20
2018-12-19T20:35:04.606Z,15.43
2018-12-19T20:37:32.030Z,15.70
2018-12-19T20:39:59.495Z,14.03
2018-12-19T20:42:26.882Z,14.17
2018-12-19T20:44:54.270Z,13.97
2018-12-19T20:47:21.746Z,14.10
2018-12-19T20:49:49.215Z,14.43
2018-12-19T20:52:16.676Z,13.97
2018-12-19T20:54:44.179Z,15.13
2018-12-19T20:57:11.697Z,15.40
2018-12-19T20:59:39.348Z,13.83
2018-12-19T21:02:06.942Z,14.43
2018-12-19T21:04:34.342Z,15.43
2018-12-19T21:07:01.722Z,14.83
2018-12-19T21:09:29.177Z,14.73
2018-12-19T21:11:56.611Z,16.70
2018-12-19T21:14:24.010Z,15.63
2018-12-19T21:16:57.096Z,16.20
2018-12-19T21:19:24.531Z,16.13
2018-12-19T21:21:51.938Z,14.87
2018-12-19T21:24:19.355Z,15.40
2018-12-19T21:26:46.753Z,15.77
2018-12-19T21:29:14.138Z,15.20
2018-12-19T21:31:41.614Z,16.23
2018-12-19T21:34:09.066Z,14.17
2018-12-19T21:36:36.528Z,15.07
2018-12-19T21:39:06.820Z,15.33
2018-12-19T21:41:34.215Z,17.10
2018-12-19T21:44:01.657Z,16.00
2018-12-19T21:46:29.156Z,16.13
2018-12-19T21:48:56.641Z,16.90
2018-12-19T21:51:24.134Z,14.80
2018-12-19T21:53:51.642Z,16.00
2018-12-19T21:56:19.171Z,15.70
2018-12-19T21:58:46.627Z,15.37
2018-12-19T22:01:14.023Z,15.40
2018-12-19T22:03:41.401Z,14.73
2018-12-19T22:06:08.880Z,14.30
2018-12-19T22:08:36.389Z,16.00
2018-12-19T22:11:05.438Z,14.40
2018-12-19T22:13:32.883Z,17.80
2018-12-19T22:16:00.349Z,16.63
2018-12-19T22:18:33.321Z,16.97
2018-12-19T22:21:00.845Z,16.80
2018-12-19T22:23:28.369Z,15.37
2018-12-19T22:25:55.942Z,15.50
2018-12-19T22:28:23.489Z,16.53
2018-12-19T22:30:50.955Z,14.40
2018-12-19T22:33:18.640Z,15.87
2018-12-19T22:35:46.100Z,16.07
2018-12-19T22:38:13.494Z,16.40
2018-12-19T22:40:41.112Z,15.60
2018-12-19T22:43:08.542Z,16.33
2018-12-19T22:45:36.007Z,15.90
2018-12-19T22:48:03.467Z,15.40
2018-12-19T22:50:30.873Z,14.17
2018-12-19T22:52:59.780Z,15.97
2018-12-19T22:55:27.530Z,15.37
2018-12-19T22:57:55.066Z,15.17
2018-12-19T23:00:22.474Z,14.60
2018-12-19T23:02:56.005Z,16.73
2018-12-19T23:05:29.255Z,16.13
2018-12-19T23:08:03.847Z,16.73
2018-12-19T23:10:31.505Z,14.30
2018-12-19T23:12:58.991Z,15.33
2018-12-19T23:15:26.444Z,15.20
2018-12-19T23:17:55.816Z,15.63
2018-12-19T23:20:23.393Z,16.30
2018-12-19T23:22:50.906Z,17.50
2018-12-19T23:25:18.717Z,14.80
2018-12-19T23:27:46.190Z,14.37
2018-12-19T23:30:13.612Z,16.40
2018-12-19T23:32:41.087Z,15.77
2018-12-19T23:35:08.619Z,15.23
2018-12-19T23:37:36.061Z,15.20
2018-12-19T23:40:04.307Z,15.57
2018-12-19T23:42:31.746Z,16.40
2018-12-19T23:44:59.186Z,16.10
2018-12-19T23:47:26.725Z,16.70
2018-12-19T23:49:54.195Z,17.97
2018-12-19T23:52:21.779Z,17.10
2018-12-19T23:54:49.342Z,16.63
2018-12-19T23:57:16.831Z,16.80
2018-12-19T23:59:44.274Z,18.17
